Franklin, Missouri
Current Conditions -  °F | °C
As of 10:35 AM on Friday 21 Nov 2014 (Local Time) from KVER Reporting Station
Overcast Overcast  
Wind Chill: 29°   Ceiling: 2800
Heat Index: 37°   Visibility: 10mi
Dew Point: 19°   Wind: 13mph
Humidity: 47%   Direction: 130°SE
Pressure: 30.31"   Gusts: NA
Location:  39.01°N, 92.75°W
Report Text: KVER 211635Z AUTO 13011KT 10SM OVC028 03/M07 A3031 RMK AO2 T00271075
Loading
Personal Weather Stations






























Interactive Weather Map New forecast layout! Learn more

10-Day Weather Forecast

Advertisements
Track Severe Weather on mobile